Main page
METAR-TAF:

METAR-TAF

Airports :

King Hussein International Airport

Aqaba, Jordan

latitude: 29-38N, longitude: 035-01E, elevation: 53 m

Current weather observation

The report was made 37 minutes ago, at 07:00 UTC
Wind 12 kt from the North
Temperature 28°C
Humidity 28%
Pressure 1012 hPa
Visibility 10 km or more
no clouds below 1500 m and no cumulonimbus

METAR: OJAQ 260700Z 01012KT CAVOK 28/08 Q1012 NOSIG

Time: 10:37 (07:37 UTC)

Forecast

The report was made 1 hour and 14 minutes ago, at 06:23 UTC
Forecast valid from 26 at 06 UTC to 27 at 12 UTC
Wind 12 kt from the North
Visibility: 7000 m

TAF: OJAQ 260623Z 2606/2712 36012KT 7000 NSC

Weather observations and forecasts of more than 4000 airports (METAR and TAF reports).

The available stations are represented by yellow and red dots on the map.

Hover mouse over dot to see the name of the station.

Then click to see weather observations and forecasts.

To change the map : click on the green buttons with a black cross to zoom in, on the green button with a dash to zoom out, or on the green arrows for adjacent maps.


METAR-TAF: